sensor_id;sensor_type;location;lat;lon;timestamp;pressure;altitude;pressure_sealevel;temperature;humidity
80678;BME280;70042;52.494;5.502;2023-07-13T00:00:36;101432.28;;;24.19;51.97
80678;BME280;70042;52.494;5.502;2023-07-13T00:03:01;101434.94;;;24.19;51.97
80678;BME280;70042;52.494;5.502;2023-07-13T00:05:27;101443.03;;;24.17;52.04
80678;BME280;70042;52.494;5.502;2023-07-13T00:07:52;101435.84;;;24.18;52.03
80678;BME280;70042;52.494;5.502;2023-07-13T00:10:18;101440.34;;;24.17;51.99
80678;BME280;70042;52.494;5.502;2023-07-13T00:12:44;101432.34;;;24.17;51.93
80678;BME280;70042;52.494;5.502;2023-07-13T00:15:17;101435.06;;;24.16;52.14
80678;BME280;70042;52.494;5.502;2023-07-13T00:17:51;101444.00;;;24.15;52.05
80678;BME280;70042;52.494;5.502;2023-07-13T00:20:17;101437.75;;;24.16;52.29
80678;BME280;70042;52.494;5.502;2023-07-13T00:22:43;101434.28;;;24.14;52.24
80678;BME280;70042;52.494;5.502;2023-07-13T00:25:11;101441.34;;;24.15;52.10
80678;BME280;70042;52.494;5.502;2023-07-13T00:27:37;101443.13;;;24.14;52.10
80678;BME280;70042;52.494;5.502;2023-07-13T00:30:02;101437.88;;;24.13;52.25
80678;BME280;70042;52.494;5.502;2023-07-13T00:32:28;101445.06;;;24.11;52.08
80678;BME280;70042;52.494;5.502;2023-07-13T00:34:55;101447.72;;;24.11;52.28
80678;BME280;70042;52.494;5.502;2023-07-13T00:37:21;101437.03;;;24.11;52.27
80678;BME280;70042;52.494;5.502;2023-07-13T00:39:47;101433.56;;;24.09;52.28
80678;BME280;70042;52.494;5.502;2023-07-13T00:42:12;101431.84;;;24.08;52.32
80678;BME280;70042;52.494;5.502;2023-07-13T00:44:37;101432.69;;;24.08;52.30
80678;BME280;70042;52.494;5.502;2023-07-13T00:47:05;101436.31;;;24.07;52.36
80678;BME280;70042;52.494;5.502;2023-07-13T00:49:31;101434.50;;;24.08;52.53
80678;BME280;70042;52.494;5.502;2023-07-13T00:52:02;101438.91;;;24.09;52.51
80678;BME280;70042;52.494;5.502;2023-07-13T00:54:33;101437.19;;;24.08;52.58
80678;BME280;70042;52.494;5.502;2023-07-13T00:57:04;101434.50;;;24.08;52.56
80678;BME280;70042;52.494;5.502;2023-07-13T00:59:31;101438.03;;;24.08;52.35
80678;BME280;70042;52.494;5.502;2023-07-13T01:01:58;101426.50;;;24.08;52.50
80678;BME280;70042;52.494;5.502;2023-07-13T01:04:24;101426.50;;;24.08;52.54
80678;BME280;70042;52.494;5.502;2023-07-13T01:06:49;101429.16;;;24.08;52.53
80678;BME280;70042;52.494;5.502;2023-07-13T01:09:15;101422.00;;;24.08;52.71
80678;BME280;70042;52.494;5.502;2023-07-13T01:11:41;101430.09;;;24.07;52.79
80678;BME280;70042;52.494;5.502;2023-07-13T01:14:08;101437.19;;;24.08;52.67
80678;BME280;70042;52.494;5.502;2023-07-13T01:16:35;101439.03;;;24.06;52.76
80678;BME280;70042;52.494;5.502;2023-07-13T01:19:03;101433.69;;;24.06;52.75
80678;BME280;70042;52.494;5.502;2023-07-13T01:21:33;101438.16;;;24.05;52.72
80678;BME280;70042;52.494;5.502;2023-07-13T01:23:59;101433.69;;;24.06;53.00
80678;BME280;70042;52.494;5.502;2023-07-13T01:26:25;101444.38;;;24.06;52.91
80678;BME280;70042;52.494;5.502;2023-07-13T01:28:50;101438.22;;;24.04;52.99
80678;BME280;70042;52.494;5.502;2023-07-13T01:31:15;101441.81;;;24.03;53.01
80678;BME280;70042;52.494;5.502;2023-07-13T01:33:41;101439.16;;;24.03;52.67
80678;BME280;70042;52.494;5.502;2023-07-13T01:36:07;101448.97;;;24.02;52.93
80678;BME280;70042;52.494;5.502;2023-07-13T01:38:33;101432.94;;;24.02;53.17
80678;BME280;70042;52.494;5.502;2023-07-13T01:40:58;101441.03;;;24.01;53.27
80678;BME280;70042;52.494;5.502;2023-07-13T01:43:24;101436.56;;;24.01;53.26
80678;BME280;70042;52.494;5.502;2023-07-13T01:45:50;101440.16;;;24.00;53.38
80678;BME280;70042;52.494;5.502;2023-07-13T01:48:15;101438.38;;;24.01;53.23
80678;BME280;70042;52.494;5.502;2023-07-13T01:50:41;101441.03;;;24.01;53.33
80678;BME280;70042;52.494;5.502;2023-07-13T01:53:06;101442.81;;;24.00;53.14
80678;BME280;70042;52.494;5.502;2023-07-13T01:55:34;101449.97;;;24.00;53.55
80678;BME280;70042;52.494;5.502;2023-07-13T01:57:59;101443.75;;;23.99;53.14
80678;BME280;70042;52.494;5.502;2023-07-13T02:00:24;101444.63;;;24.00;53.27
80678;BME280;70042;52.494;5.502;2023-07-13T02:02:50;101449.09;;;23.99;53.35
80678;BME280;70042;52.494;5.502;2023-07-13T02:05:16;101441.16;;;23.98;53.40
80678;BME280;70042;52.494;5.502;2023-07-13T02:07:41;101443.84;;;23.98;53.39
80678;BME280;70042;52.494;5.502;2023-07-13T02:10:08;101446.50;;;23.98;53.26
80678;BME280;70042;52.494;5.502;2023-07-13T02:12:34;101452.72;;;23.98;53.50
80678;BME280;70042;52.494;5.502;2023-07-13T02:14:59;101452.63;;;24.00;53.59
80678;BME280;70042;52.494;5.502;2023-07-13T02:17:26;101455.31;;;24.00;53.49
80678;BME280;70042;52.494;5.502;2023-07-13T02:19:52;101445.53;;;23.99;53.23
80678;BME280;70042;52.494;5.502;2023-07-13T02:22:17;101455.31;;;24.00;53.69
80678;BME280;70042;52.494;5.502;2023-07-13T02:24:43;101455.31;;;24.00;53.55
80678;BME280;70042;52.494;5.502;2023-07-13T02:27:08;101449.09;;;23.99;53.60
80678;BME280;70042;52.494;5.502;2023-07-13T02:29:34;101448.28;;;23.97;53.64
80678;BME280;70042;52.494;5.502;2023-07-13T02:31:59;101447.41;;;23.97;53.92
80678;BME280;70042;52.494;5.502;2023-07-13T02:34:24;101453.63;;;23.97;53.81
80678;BME280;70042;52.494;5.502;2023-07-13T02:36:49;101450.09;;;23.97;53.81
80678;BME280;70042;52.494;5.502;2023-07-13T02:39:15;101454.56;;;23.96;54.11
80678;BME280;70042;52.494;5.502;2023-07-13T02:41:40;101454.56;;;23.96;54.16
80678;BME280;70042;52.494;5.502;2023-07-13T02:44:06;101453.69;;;23.96;53.81
80678;BME280;70042;52.494;5.502;2023-07-13T02:46:34;101450.03;;;23.98;53.93
80678;BME280;70042;52.494;5.502;2023-07-13T02:49:01;101453.56;;;23.99;53.91
80678;BME280;70042;52.494;5.502;2023-07-13T02:51:26;101449.09;;;23.99;54.04
80678;BME280;70042;52.494;5.502;2023-07-13T02:53:52;101460.63;;;24.00;53.97
80678;BME280;70042;52.494;5.502;2023-07-13T02:56:18;101452.63;;;24.00;53.97
80678;BME280;70042;52.494;5.502;2023-07-13T02:58:44;101463.25;;;24.01;54.05
80678;BME280;70042;52.494;5.502;2023-07-13T03:01:10;101464.09;;;24.02;53.95
80678;BME280;70042;52.494;5.502;2023-07-13T03:03:36;101464.09;;;24.02;53.97
80678;BME280;70042;52.494;5.502;2023-07-13T03:06:02;101459.63;;;24.02;53.94
80678;BME280;70042;52.494;5.502;2023-07-13T03:08:30;101464.09;;;24.02;53.33
80678;BME280;70042;52.494;5.502;2023-07-13T03:11:02;101463.19;;;24.03;54.26
80678;BME280;70042;52.494;5.502;2023-07-13T03:13:28;101461.44;;;24.02;53.86
80678;BME280;70042;52.494;5.502;2023-07-13T03:15:54;101461.44;;;24.02;53.63
80678;BME280;70042;52.494;5.502;2023-07-13T03:18:19;101460.59;;;24.01;54.09
80678;BME280;70042;52.494;5.502;2023-07-13T03:20:44;101462.38;;;24.01;54.30
80678;BME280;70042;52.494;5.502;2023-07-13T03:23:10;101464.19;;;24.00;54.38
80678;BME280;70042;52.494;5.502;2023-07-13T03:25:35;101467.72;;;24.01;54.33
80678;BME280;70042;52.494;5.502;2023-07-13T03:28:00;101472.19;;;24.00;54.09
80678;BME280;70042;52.494;5.502;2023-07-13T03:30:26;101471.31;;;24.00;54.11
80678;BME280;70042;52.494;5.502;2023-07-13T03:32:51;101472.25;;;23.99;54.14
80678;BME280;70042;52.494;5.502;2023-07-13T03:35:16;101477.56;;;23.99;54.25
80678;BME280;70042;52.494;5.502;2023-07-13T03:37:42;101469.56;;;23.99;54.45
80678;BME280;70042;52.494;5.502;2023-07-13T03:40:08;101470.44;;;23.99;54.53
80678;BME280;70042;52.494;5.502;2023-07-13T03:42:34;101473.19;;;23.98;54.42
80678;BME280;70042;52.494;5.502;2023-07-13T03:45:00;101476.75;;;23.98;54.38
80678;BME280;70042;52.494;5.502;2023-07-13T03:47:25;101476.78;;;23.97;54.50
80678;BME280;70042;52.494;5.502;2023-07-13T03:49:51;101486.53;;;23.98;54.51
80678;BME280;70042;52.494;5.502;2023-07-13T03:52:16;101489.22;;;23.98;54.67
80678;BME280;70042;52.494;5.502;2023-07-13T03:54:41;101494.56;;;23.98;54.84
80678;BME280;70042;52.494;5.502;2023-07-13T03:57:08;101491.94;;;23.96;54.81
80678;BME280;70042;52.494;5.502;2023-07-13T03:59:34;101492.81;;;23.97;54.86
80678;BME280;70042;52.494;5.502;2023-07-13T04:02:00;101495.47;;;23.97;54.92
80678;BME280;70042;52.494;5.502;2023-07-13T04:04:25;101496.38;;;23.96;54.86
80678;BME280;70042;52.494;5.502;2023-07-13T04:06:50;101494.69;;;23.95;54.56
80678;BME280;70042;52.494;5.502;2023-07-13T04:09:18;101496.53;;;23.92;55.08
80678;BME280;70042;52.494;5.502;2023-07-13T04:11:43;101491.19;;;23.92;55.06
80678;BME280;70042;52.494;5.502;2023-07-13T04:14:09;101503.72;;;23.90;54.70
80678;BME280;70042;52.494;5.502;2023-07-13T04:16:34;101492.19;;;23.90;55.01
80678;BME280;70042;52.494;5.502;2023-07-13T04:18:59;101507.41;;;23.88;54.98
80678;BME280;70042;52.494;5.502;2023-07-13T04:21:25;101504.78;;;23.86;55.13
80678;BME280;70042;52.494;5.502;2023-07-13T04:23:52;101514.53;;;23.87;55.30
80678;BME280;70042;52.494;5.502;2023-07-13T04:26:18;101510.06;;;23.88;54.95
80678;BME280;70042;52.494;5.502;2023-07-13T04:28:46;101516.28;;;23.88;55.33
80678;BME280;70042;52.494;5.502;2023-07-13T04:31:12;101510.94;;;23.88;54.92
80678;BME280;70042;52.494;5.502;2023-07-13T04:33:38;101510.94;;;23.88;55.13
80678;BME280;70042;52.494;5.502;2023-07-13T04:36:04;101516.28;;;23.88;55.03
80678;BME280;70042;52.494;5.502;2023-07-13T04:38:31;101518.00;;;23.89;55.13
80678;BME280;70042;52.494;5.502;2023-07-13T04:41:03;101527.75;;;23.90;55.13
80678;BME280;70042;52.494;5.502;2023-07-13T04:43:29;101524.22;;;23.90;55.20
80678;BME280;70042;52.494;5.502;2023-07-13T04:45:55;101524.22;;;23.90;55.35
80678;BME280;70042;52.494;5.502;2023-07-13T04:48:21;101531.28;;;23.91;55.62
80678;BME280;70042;52.494;5.502;2023-07-13T04:50:47;101526.84;;;23.92;55.30
80678;BME280;70042;52.494;5.502;2023-07-13T04:53:22;101515.19;;;23.92;55.72
80678;BME280;70042;52.494;5.502;2023-07-13T04:55:47;101522.25;;;23.95;55.83
80678;BME280;70042;52.494;5.502;2023-07-13T04:58:13;101521.38;;;23.95;55.43
80678;BME280;70042;52.494;5.502;2023-07-13T05:00:38;101526.75;;;23.93;55.80
80678;BME280;70042;52.494;5.502;2023-07-13T05:03:04;101527.63;;;23.94;55.55
80678;BME280;70042;52.494;5.502;2023-07-13T05:05:30;101530.31;;;23.94;55.74
80678;BME280;70042;52.494;5.502;2023-07-13T05:07:55;101540.09;;;23.93;55.72
80678;BME280;70042;52.494;5.502;2023-07-13T05:10:21;101536.56;;;23.92;55.66
80678;BME280;70042;52.494;5.502;2023-07-13T05:12:49;101544.66;;;23.91;55.95
80678;BME280;70042;52.494;5.502;2023-07-13T05:15:16;101541.97;;;23.91;55.57
80678;BME280;70042;52.494;5.502;2023-07-13T05:17:41;101549.09;;;23.90;55.71
80678;BME280;70042;52.494;5.502;2023-07-13T05:20:08;101543.78;;;23.90;56.02
80678;BME280;70042;52.494;5.502;2023-07-13T05:22:34;101549.16;;;23.89;55.69
80678;BME280;70042;52.494;5.502;2023-07-13T05:25:01;101548.31;;;23.88;55.73
80678;BME280;70042;52.494;5.502;2023-07-13T05:27:27;101554.50;;;23.89;55.79
80678;BME280;70042;52.494;5.502;2023-07-13T05:29:52;101555.38;;;23.89;55.73
80678;BME280;70042;52.494;5.502;2023-07-13T05:32:18;101555.38;;;23.89;55.77
80678;BME280;70042;52.494;5.502;2023-07-13T05:34:44;101552.69;;;23.89;55.83
80678;BME280;70042;52.494;5.502;2023-07-13T05:37:09;101560.69;;;23.89;55.72
80678;BME280;70042;52.494;5.502;2023-07-13T05:39:35;101557.16;;;23.89;55.79
80678;BME280;70042;52.494;5.502;2023-07-13T05:42:01;101557.25;;;23.87;55.78
80678;BME280;70042;52.494;5.502;2023-07-13T05:44:26;101557.25;;;23.87;55.67
80678;BME280;70042;52.494;5.502;2023-07-13T05:46:51;101562.56;;;23.87;55.55
80678;BME280;70042;52.494;5.502;2023-07-13T05:49:17;101563.50;;;23.86;55.50
80678;BME280;70042;52.494;5.502;2023-07-13T05:51:42;101561.78;;;23.85;56.20
80678;BME280;70042;52.494;5.502;2023-07-13T05:54:08;101565.28;;;23.86;56.80
80678;BME280;70042;52.494;5.502;2023-07-13T05:56:33;101562.69;;;23.84;56.31
80678;BME280;70042;52.494;5.502;2023-07-13T05:58:58;101568.03;;;23.84;56.24
80678;BME280;70042;52.494;5.502;2023-07-13T06:01:24;101562.69;;;23.84;56.21
80678;BME280;70042;52.494;5.502;2023-07-13T06:03:50;101560.94;;;23.83;55.96
80678;BME280;70042;52.494;5.502;2023-07-13T06:06:15;101573.38;;;23.84;56.11
80678;BME280;70042;52.494;5.502;2023-07-13T06:08:41;101567.16;;;23.84;56.20
80678;BME280;70042;52.494;5.502;2023-07-13T06:11:12;101567.16;;;23.84;55.97
80678;BME280;70042;52.494;5.502;2023-07-13T06:13:39;101568.91;;;23.85;56.32
80678;BME280;70042;52.494;5.502;2023-07-13T06:16:04;101575.13;;;23.85;56.13
80678;BME280;70042;52.494;5.502;2023-07-13T06:18:32;101580.47;;;23.85;55.90
80678;BME280;70042;52.494;5.502;2023-07-13T06:20:57;101580.47;;;23.85;55.90
80678;BME280;70042;52.494;5.502;2023-07-13T06:23:23;101575.97;;;23.86;55.87
80678;BME280;70042;52.494;5.502;2023-07-13T06:25:49;101579.59;;;23.85;55.85
80678;BME280;70042;52.494;5.502;2023-07-13T06:28:14;101591.97;;;23.86;55.98
80678;BME280;70042;52.494;5.502;2023-07-13T06:30:40;101580.47;;;23.85;55.85
80678;BME280;70042;52.494;5.502;2023-07-13T06:33:07;101585.78;;;23.85;55.80
80678;BME280;70042;52.494;5.502;2023-07-13T06:35:33;101590.19;;;23.86;55.83
80678;BME280;70042;52.494;5.502;2023-07-13T06:37:59;101586.63;;;23.86;55.81
80678;BME280;70042;52.494;5.502;2023-07-13T06:40:24;101587.50;;;23.86;55.76
80678;BME280;70042;52.494;5.502;2023-07-13T06:42:49;101588.47;;;23.85;55.82
80678;BME280;70042;52.494;5.502;2023-07-13T06:45:15;101591.97;;;23.86;55.77
80678;BME280;70042;52.494;5.502;2023-07-13T06:47:40;101592.06;;;23.84;55.82
80678;BME280;70042;52.494;5.502;2023-07-13T06:50:06;101598.19;;;23.86;55.85
80678;BME280;70042;52.494;5.502;2023-07-13T06:52:32;101603.53;;;23.86;55.59
80678;BME280;70042;52.494;5.502;2023-07-13T06:54:57;101603.53;;;23.86;55.87
80678;BME280;70042;52.494;5.502;2023-07-13T06:57:23;101608.88;;;23.86;55.84
80678;BME280;70042;52.494;5.502;2023-07-13T06:59:48;101602.63;;;23.87;55.56
80678;BME280;70042;52.494;5.502;2023-07-13T07:02:14;101599.03;;;23.88;56.08
80678;BME280;70042;52.494;5.502;2023-07-13T07:04:39;101601.69;;;23.88;55.83
80678;BME280;70042;52.494;5.502;2023-07-13T07:07:05;101607.03;;;23.88;55.91
80678;BME280;70042;52.494;5.502;2023-07-13T07:09:30;101606.16;;;23.88;56.01
80678;BME280;70042;52.494;5.502;2023-07-13T07:11:57;101606.06;;;23.89;55.88
80678;BME280;70042;52.494;5.502;2023-07-13T07:14:22;101599.81;;;23.90;56.05
80678;BME280;70042;52.494;5.502;2023-07-13T07:16:47;101605.03;;;23.94;56.07
80678;BME280;70042;52.494;5.502;2023-07-13T07:19:13;101599.69;;;23.94;55.93
80678;BME280;70042;52.494;5.502;2023-07-13T07:21:38;101604.91;;;23.97;56.23
80678;BME280;70042;52.494;5.502;2023-07-13T07:24:04;101610.25;;;23.97;56.13
80678;BME280;70042;52.494;5.502;2023-07-13T07:26:30;101613.81;;;23.97;56.04
80678;BME280;70042;52.494;5.502;2023-07-13T07:28:55;101615.47;;;24.00;56.22
80678;BME280;70042;52.494;5.502;2023-07-13T07:31:21;101615.47;;;24.00;56.34
80678;BME280;70042;52.494;5.502;2023-07-13T07:33:46;101601.22;;;24.01;56.07
80678;BME280;70042;52.494;5.502;2023-07-13T07:36:12;101597.72;;;23.99;56.02
80678;BME280;70042;52.494;5.502;2023-07-13T07:38:37;101598.66;;;23.98;55.82
80678;BME280;70042;52.494;5.502;2023-07-13T07:41:04;101602.25;;;23.97;56.17
80678;BME280;70042;52.494;5.502;2023-07-13T07:43:30;101604.91;;;23.97;56.80
80678;BME280;70042;52.494;5.502;2023-07-13T07:45:56;101619.13;;;23.97;57.09
80678;BME280;70042;52.494;5.502;2023-07-13T07:48:21;101629.75;;;23.99;57.00
80678;BME280;70042;52.494;5.502;2023-07-13T07:50:47;101635.06;;;23.99;57.21
80678;BME280;70042;52.494;5.502;2023-07-13T07:53:12;101637.72;;;24.00;57.28
80678;BME280;70042;52.494;5.502;2023-07-13T07:55:38;101631.50;;;24.00;57.09
80678;BME280;70042;52.494;5.502;2023-07-13T07:58:04;101633.25;;;24.01;57.20
80678;BME280;70042;52.494;5.502;2023-07-13T08:00:29;101631.50;;;24.00;57.21
80678;BME280;70042;52.494;5.502;2023-07-13T08:02:57;101626.16;;;24.00;57.08
80678;BME280;70042;52.494;5.502;2023-07-13T08:05:23;101621.69;;;24.00;57.14
80678;BME280;70042;52.494;5.502;2023-07-13T08:07:48;101621.69;;;24.00;57.17
80678;BME280;70042;52.494;5.502;2023-07-13T08:10:14;101626.16;;;24.00;57.32
80678;BME280;70042;52.494;5.502;2023-07-13T08:12:39;101622.59;;;23.99;57.23
80678;BME280;70042;52.494;5.502;2023-07-13T08:15:06;101622.69;;;23.98;57.47
80678;BME280;70042;52.494;5.502;2023-07-13T08:17:32;101628.91;;;23.98;57.12
80678;BME280;70042;52.494;5.502;2023-07-13T08:19:57;101640.41;;;23.99;57.26
80678;BME280;70042;52.494;5.502;2023-07-13T08:22:22;101643.97;;;23.99;57.34
80678;BME280;70042;52.494;5.502;2023-07-13T08:24:48;101645.75;;;23.99;57.18
80678;BME280;70042;52.494;5.502;2023-07-13T08:27:20;101643.09;;;23.99;57.04
80678;BME280;70042;52.494;5.502;2023-07-13T08:29:47;101648.44;;;23.99;56.97
80678;BME280;70042;52.494;5.502;2023-07-13T08:32:12;101638.59;;;24.01;56.99
80678;BME280;70042;52.494;5.502;2023-07-13T08:34:39;101653.66;;;24.02;56.97
80678;BME280;70042;52.494;5.502;2023-07-13T08:37:05;101638.59;;;24.01;56.75
80678;BME280;70042;52.494;5.502;2023-07-13T08:39:31;101643.91;;;24.01;56.50
80678;BME280;70042;52.494;5.502;2023-07-13T08:42:01;101653.78;;;23.99;56.55
80678;BME280;70042;52.494;5.502;2023-07-13T08:44:57;101651.09;;;23.99;56.50
80678;BME280;70042;52.494;5.502;2023-07-13T08:47:27;101648.53;;;23.96;56.51
80678;BME280;70042;52.494;5.502;2023-07-13T08:49:56;101645.75;;;23.99;56.37
80678;BME280;70042;52.494;5.502;2023-07-13T08:52:37;101647.50;;;24.00;56.43
80678;BME280;70042;52.494;5.502;2023-07-13T08:55:17;101653.56;;;24.05;55.77
80678;BME280;70042;52.494;5.502;2023-07-13T08:57:54;101640.94;;;24.08;56.10
80678;BME280;70042;52.494;5.502;2023-07-13T09:00:25;101639.88;;;24.14;55.85
80678;BME280;70042;52.494;5.502;2023-07-13T09:02:59;101645.22;;;24.14;55.89
80678;BME280;70042;52.494;5.502;2023-07-13T09:05:33;101659.38;;;24.16;56.02
80678;BME280;70042;52.494;5.502;2023-07-13T09:08:29;101662.91;;;24.16;55.91
80678;BME280;70042;52.494;5.502;2023-07-13T09:14:42;101651.47;;;24.13;55.96
80678;BME280;70042;52.494;5.502;2023-07-13T09:17:22;101648.81;;;24.13;55.82
80678;BME280;70042;52.494;5.502;2023-07-13T09:19:57;101643.47;;;24.13;55.99
80678;BME280;70042;52.494;5.502;2023-07-13T09:22:25;101646.19;;;24.11;56.04
80678;BME280;70042;52.494;5.502;2023-07-13T09:25:02;101662.25;;;24.10;55.94
80678;BME280;70042;52.494;5.502;2023-07-13T09:27:40;101668.50;;;24.09;56.41
80678;BME280;70042;52.494;5.502;2023-07-13T09:30:25;101669.47;;;24.08;56.46
80678;BME280;70042;52.494;5.502;2023-07-13T09:32:53;101671.19;;;24.09;56.27
80678;BME280;70042;52.494;5.502;2023-07-13T09:35:27;101684.53;;;24.09;56.41
80678;BME280;70042;52.494;5.502;2023-07-13T09:38:30;101675.66;;;24.08;56.42
80678;BME280;70042;52.494;5.502;2023-07-13T09:41:04;101672.97;;;24.08;56.46
80678;BME280;70042;52.494;5.502;2023-07-13T09:43:30;101673.94;;;24.07;56.55
80678;BME280;70042;52.494;5.502;2023-07-13T09:45:57;101675.59;;;24.10;56.57
80678;BME280;70042;52.494;5.502;2023-07-13T09:48:23;101688.00;;;24.12;56.48
80678;BME280;70042;52.494;5.502;2023-07-13T09:50:54;101679.09;;;24.12;56.35
80678;BME280;70042;52.494;5.502;2023-07-13T09:53:21;101688.78;;;24.14;56.38
80678;BME280;70042;52.494;5.502;2023-07-13T09:55:49;101675.28;;;24.19;56.26
80678;BME280;70042;52.494;5.502;2023-07-13T09:58:18;101690.25;;;24.23;56.35
80678;BME280;70042;52.494;5.502;2023-07-13T10:01:03;101679.50;;;24.24;56.06
80678;BME280;70042;52.494;5.502;2023-07-13T10:03:32;101694.59;;;24.25;56.14
80678;BME280;70042;52.494;5.502;2023-07-13T10:06:18;101689.31;;;24.24;56.14
80678;BME280;70042;52.494;5.502;2023-07-13T10:08:45;101696.47;;;24.23;55.95
80678;BME280;70042;52.494;5.502;2023-07-13T10:11:22;101703.50;;;24.26;56.38
80678;BME280;70042;52.494;5.502;2023-07-13T10:13:52;101698.16;;;24.26;56.07
80678;BME280;70042;52.494;5.502;2023-07-13T10:16:21;101702.44;;;24.30;55.99
80678;BME280;70042;52.494;5.502;2023-07-13T10:18:57;101709.50;;;24.31;56.08
80678;BME280;70042;52.494;5.502;2023-07-13T10:21:30;101704.00;;;24.35;55.60
80678;BME280;70042;52.494;5.502;2023-07-13T10:24:18;101718.09;;;24.39;55.66
80678;BME280;70042;52.494;5.502;2023-07-13T10:27:00;101725.13;;;24.41;55.44
80678;BME280;70042;52.494;5.502;2023-07-13T10:29:27;101721.53;;;24.42;55.29
80678;BME280;70042;52.494;5.502;2023-07-13T10:31:54;101716.91;;;24.46;55.10
80678;BME280;70042;52.494;5.502;2023-07-13T10:34:22;101721.28;;;24.49;54.83
80678;BME280;70042;52.494;5.502;2023-07-13T10:36:49;101722.09;;;24.51;55.04
80678;BME280;70042;52.494;5.502;2023-07-13T10:39:23;101722.97;;;24.51;55.03
80678;BME280;70042;52.494;5.502;2023-07-13T10:41:54;101718.50;;;24.52;54.95
80678;BME280;70042;52.494;5.502;2023-07-13T10:44:29;101720.16;;;24.54;54.74
80678;BME280;70042;52.494;5.502;2023-07-13T10:47:07;101725.38;;;24.57;54.79
80678;BME280;70042;52.494;5.502;2023-07-13T10:49:34;101726.19;;;24.59;54.58
80678;BME280;70042;52.494;5.502;2023-07-13T10:52:01;101730.59;;;24.60;54.30
80678;BME280;70042;52.494;5.502;2023-07-13T10:57:20;101742.94;;;24.64;54.29
80678;BME280;70042;52.494;5.502;2023-07-13T11:00:14;101733.94;;;24.65;54.32
80678;BME280;70042;52.494;5.502;2023-07-13T11:02:40;101745.41;;;24.69;54.52
80678;BME280;70042;52.494;5.502;2023-07-13T11:05:29;101749.75;;;24.71;54.24
80678;BME280;70042;52.494;5.502;2023-07-13T11:08:03;101746.16;;;24.72;54.02
80678;BME280;70042;52.494;5.502;2023-07-13T11:10:53;101743.44;;;24.74;53.97
80678;BME280;70042;52.494;5.502;2023-07-13T11:16:34;101749.44;;;24.79;53.90
80678;BME280;70042;52.494;5.502;2023-07-13T11:21:29;101747.56;;;24.82;53.73
80678;BME280;70042;52.494;5.502;2023-07-13T11:24:16;101745.81;;;24.81;53.43
80678;BME280;70042;52.494;5.502;2023-07-13T11:31:43;101750.16;;;24.84;53.35
80678;BME280;70042;52.494;5.502;2023-07-13T11:34:19;101746.56;;;24.85;53.46
80678;BME280;70042;52.494;5.502;2023-07-13T11:36:47;101744.69;;;24.87;53.43
80678;BME280;70042;52.494;5.502;2023-07-13T11:41:50;101754.44;;;24.88;53.28
80678;BME280;70042;52.494;5.502;2023-07-13T11:44:19;101758.88;;;24.89;53.29
80678;BME280;70042;52.494;5.502;2023-07-13T11:46:47;101760.53;;;24.91;53.43
80678;BME280;70042;52.494;5.502;2023-07-13T11:49:16;101757.78;;;24.93;53.22
80678;BME280;70042;52.494;5.502;2023-07-13T11:51:43;101762.22;;;24.94;53.07
80678;BME280;70042;52.494;5.502;2023-07-13T11:54:31;101762.22;;;24.94;52.95
80678;BME280;70042;52.494;5.502;2023-07-13T11:59:42;101772.78;;;24.97;52.94
80678;BME280;70042;52.494;5.502;2023-07-13T12:02:17;101784.31;;;24.99;53.01
80678;BME280;70042;52.494;5.502;2023-07-13T12:04:43;101772.66;;;25.00;52.90
80678;BME280;70042;52.494;5.502;2023-07-13T12:07:17;101770.81;;;25.02;52.89
80678;BME280;70042;52.494;5.502;2023-07-13T12:09:43;101758.28;;;25.03;52.68
80678;BME280;70042;52.494;5.502;2023-07-13T12:12:17;101769.84;;;25.03;52.80
80678;BME280;70042;52.494;5.502;2023-07-13T12:14:42;101775.16;;;25.05;52.72
80678;BME280;70042;52.494;5.502;2023-07-13T12:17:25;101768.06;;;25.04;52.83
80678;BME280;70042;52.494;5.502;2023-07-13T12:19:52;101768.06;;;25.04;52.68
80678;BME280;70042;52.494;5.502;2023-07-13T12:22:19;101771.53;;;25.06;52.85
80678;BME280;70042;52.494;5.502;2023-07-13T12:24:46;101765.25;;;25.07;52.83
80678;BME280;70042;52.494;5.502;2023-07-13T12:27:30;101774.16;;;25.07;53.01
80678;BME280;70042;52.494;5.502;2023-07-13T12:30:02;101775.03;;;25.08;52.34
80678;BME280;70042;52.494;5.502;2023-07-13T12:32:28;101779.47;;;25.09;52.60
80678;BME280;70042;52.494;5.502;2023-07-13T12:35:01;101773.09;;;25.11;52.42
80678;BME280;70042;52.494;5.502;2023-07-13T12:37:29;101774.91;;;25.11;52.62
80678;BME280;70042;52.494;5.502;2023-07-13T12:39:56;101771.31;;;25.12;52.25
80678;BME280;70042;52.494;5.502;2023-07-13T12:42:28;101781.06;;;25.13;52.31
80678;BME280;70042;52.494;5.502;2023-07-13T12:45:17;101785.47;;;25.14;52.30
80678;BME280;70042;52.494;5.502;2023-07-13T12:47:47;101780.91;;;25.16;52.25
80678;BME280;70042;52.494;5.502;2023-07-13T12:50:16;101788.06;;;25.15;52.18
80678;BME280;70042;52.494;5.502;2023-07-13T12:52:43;101783.59;;;25.16;52.09
80678;BME280;70042;52.494;5.502;2023-07-13T12:55:18;101791.63;;;25.16;52.13
80678;BME280;70042;52.494;5.502;2023-07-13T12:57:55;101781.88;;;25.15;52.35
80678;BME280;70042;52.494;5.502;2023-07-13T13:00:28;101780.13;;;25.14;51.39
80678;BME280;70042;52.494;5.502;2023-07-13T13:03:44;101779.25;;;25.13;51.90
80678;BME280;70042;52.494;5.502;2023-07-13T13:10:10;101787.88;;;25.20;52.24
80678;BME280;70042;52.494;5.502;2023-07-13T13:12:36;101788.69;;;25.22;52.07
80678;BME280;70042;52.494;5.502;2023-07-13T13:15:22;101797.66;;;25.21;52.05
80678;BME280;70042;52.494;5.502;2023-07-13T13:18:32;101792.19;;;25.24;52.22
80678;BME280;70042;52.494;5.502;2023-07-13T13:21:46;101785.88;;;25.25;51.87
80678;BME280;70042;52.494;5.502;2023-07-13T13:24:33;101795.66;;;25.26;52.12